N5860H PHLI-PHLI

Flight info

Callsign N5860H
Flight time 0h 35m
Altitude 1500
Route TOUR ROUTE NAPALI CST
Aircraft R66/L-V/N

Departure

Time 2026-04-20 03:14
Airport Lihue Airport (PHLI)

Arrival

Time 2026-04-20 03:50
Airport Lihue Airport (PHLI)
Time Latitude Longitude Altitude Speed Heading
2026-04-20 02:57 21.98393 -159.33994 102 ft 0 kts 134°
2026-04-20 03:07 21.98393 -159.33993 104 ft 1 kts 133°
2026-04-20 03:07 21.98391 -159.33987 108 ft 2 kts 89°
2026-04-20 03:07 21.98397 -159.33975 108 ft 3 kts 66°
2026-04-20 03:08 21.98415 -159.33955 112 ft 5 kts 64°
2026-04-20 03:08 21.98437 -159.33933 111 ft 7 kts 57°
2026-04-20 03:08 21.98462 -159.33910 112 ft 3 kts 88°
2026-04-20 03:08 21.98466 -159.33886 108 ft 3 kts 111°
2026-04-20 03:09 21.98452 -159.33858 110 ft 6 kts 137°
2026-04-20 03:09 21.98403 -159.33864 108 ft 10 kts 216°
2026-04-20 03:09 21.98355 -159.33916 113 ft 13 kts 218°
2026-04-20 03:09 21.98287 -159.33986 120 ft 14 kts 224°
2026-04-20 03:10 21.98207 -159.34070 127 ft 19 kts 224°
2026-04-20 03:10 21.98128 -159.34159 136 ft 15 kts 226°
2026-04-20 03:10 21.98030 -159.34261 149 ft 23 kts 225°
2026-04-20 03:10 21.97952 -159.34346 156 ft 25 kts 223°
2026-04-20 03:11 21.97832 -159.34473 158 ft 23 kts 226°
2026-04-20 03:11 21.97715 -159.34596 168 ft 25 kts 231°
2026-04-20 03:11 21.97604 -159.34719 163 ft 17 kts 227°
2026-04-20 03:11 21.97555 -159.34776 159 ft 6 kts 191°
2026-04-20 03:12 21.97537 -159.34787 166 ft 7 kts 162°
2026-04-20 03:12 21.97513 -159.34785 168 ft 4 kts 143°
2026-04-20 03:12 21.97481 -159.34747 176 ft 9 kts 123°
2026-04-20 03:12 21.97536 -159.34625 183 ft 31 kts 59°
2026-04-20 03:13 21.97733 -159.34411 191 ft 49 kts 54°
2026-04-20 03:13 21.98011 -159.34113 192 ft 62 kts 50°
2026-04-20 03:13 21.98353 -159.33755 218 ft 73 kts 51°
2026-04-20 03:13 21.98540 -159.33293 324 ft 65 kts 103°
2026-04-20 03:14 21.98237 -159.32960 448 ft 66 kts 155°
2026-04-20 03:14 21.97732 -159.32937 521 ft 77 kts 176°
2026-04-20 03:14 21.97210 -159.33062 677 ft 78 kts 204°
2026-04-20 03:14 21.96818 -159.33515 798 ft 92 kts 238°
2026-04-20 03:15 21.96508 -159.34186 884 ft 107 kts 244°
2026-04-20 03:15 21.96169 -159.34908 1000 ft 108 kts 241°
2026-04-20 03:15 21.95869 -159.35597 1249 ft 94 kts 243°
2026-04-20 03:15 21.95629 -159.36291 1397 ft 107 kts 252°
2026-04-20 03:16 21.95423 -159.37112 1446 ft 123 kts 254°
2026-04-20 03:16 21.95201 -159.38057 1449 ft 132 kts 254°
2026-04-20 03:16 21.94958 -159.39046 1455 ft 143 kts 254°
2026-04-20 03:16 21.94712 -159.40086 1446 ft 142 kts 252°
2026-04-20 03:17 21.94485 -159.41095 1554 ft 135 kts 255°
2026-04-20 03:17 21.94229 -159.42098 1528 ft 141 kts 252°
2026-04-20 03:17 21.94027 -159.43159 1528 ft 145 kts 261°
2026-04-20 03:17 21.93873 -159.44245 1516 ft 147 kts 258°
2026-04-20 03:18 21.93682 -159.45317 1535 ft 146 kts 256°
2026-04-20 03:18 21.93443 -159.46414 1508 ft 152 kts 253°
2026-04-20 03:18 21.93163 -159.47489 1491 ft 147 kts 252°
2026-04-20 03:18 21.92849 -159.48542 1477 ft 145 kts 252°
2026-04-20 03:19 21.92536 -159.49579 1439 ft 146 kts 249°
2026-04-20 03:19 21.92272 -159.50605 1484 ft 141 kts 259°
2026-04-20 03:19 21.92197 -159.51644 1482 ft 138 kts 275°
2026-04-20 03:19 21.92340 -159.52654 1497 ft 136 kts 285°
2026-04-20 03:20 21.92613 -159.53621 1568 ft 134 kts 287°
2026-04-20 03:20 21.92915 -159.54598 1527 ft 140 kts 287°
2026-04-20 03:20 21.93229 -159.55586 1516 ft 141 kts 287°
2026-04-20 03:20 21.93516 -159.56576 1520 ft 138 kts 285°
2026-04-20 03:21 21.93750 -159.57575 1561 ft 138 kts 282°
2026-04-20 03:21 21.94063 -159.58552 1554 ft 139 kts 295°
2026-04-20 03:21 21.94596 -159.59412 1554 ft 138 kts 315°
2026-04-20 03:21 21.95309 -159.60075 1597 ft 135 kts 319°
2026-04-20 03:22 21.96027 -159.60734 1603 ft 136 kts 319°
2026-04-20 03:22 21.96755 -159.61402 1626 ft 137 kts 320°
2026-04-20 03:22 21.97483 -159.62044 1691 ft 133 kts 321°
2026-04-20 03:22 21.98199 -159.62655 1799 ft 131 kts 323°
2026-04-20 03:23 21.98913 -159.63255 1873 ft 129 kts 322°
2026-04-20 03:23 21.99661 -159.63819 1922 ft 132 kts 332°
2026-04-20 03:23 22.00513 -159.64115 1980 ft 124 kts 358°
2026-04-20 03:23 22.01344 -159.64135 2075 ft 117 kts
2026-04-20 03:24 22.02152 -159.64039 2233 ft 117 kts 11°
2026-04-20 03:24 22.02967 -159.63929 2345 ft 118 kts
2026-04-20 03:24 22.03777 -159.63799 2499 ft 116 kts
2026-04-20 03:24 22.04529 -159.63632 2611 ft 103 kts 13°
2026-04-20 03:25 22.05194 -159.63445 2715 ft 101 kts 10°
2026-04-20 03:25 22.05922 -159.63318 2833 ft 113 kts 355°
2026-04-20 03:25 22.06708 -159.63625 2892 ft 134 kts 323°
2026-04-20 03:25 22.07447 -159.64256 2906 ft 135 kts 318°
2026-04-20 03:26 22.08194 -159.64824 3144 ft 128 kts 339°
2026-04-20 03:26 22.09044 -159.64747 3269 ft 125 kts 28°
2026-04-20 03:26 22.09785 -159.64230 3444 ft 127 kts 39°
2026-04-20 03:26 22.10476 -159.63633 3847 ft 129 kts 36°
2026-04-20 03:27 22.11203 -159.63084 3989 ft 129 kts 37°
2026-04-20 03:27 22.11891 -159.62525 4234 ft 120 kts 38°
2026-04-20 03:27 22.12538 -159.61982 4601 ft 117 kts 25°
2026-04-20 03:27 22.13377 -159.61839 4770 ft 132 kts 358°
2026-04-20 03:28 22.14330 -159.62066 4706 ft 149 kts 332°
2026-04-20 03:28 22.15231 -159.62671 4482 ft 155 kts 322°
2026-04-20 03:28 22.16817 -159.64099 3919 ft 146 kts 322°
2026-04-20 03:29 22.17782 -159.64497 3434 ft 155 kts
2026-04-20 03:29 22.18846 -159.64281 2809 ft 163 kts 27°
2026-04-20 03:29 22.19697 -159.63497 2215 ft 159 kts 58°
2026-04-20 03:29 22.20222 -159.62496 1782 ft 151 kts 68°
2026-04-20 03:30 22.20615 -159.61498 1495 ft 140 kts 67°
2026-04-20 03:30 22.21041 -159.60607 1445 ft 127 kts 61°
2026-04-20 03:30 22.21471 -159.59810 1431 ft 121 kts 59°
2026-04-20 03:30 22.21970 -159.59055 1301 ft 125 kts 55°
2026-04-20 03:31 22.22400 -159.58274 1311 ft 118 kts 71°
2026-04-20 03:31 22.22574 -159.57427 1402 ft 118 kts 85°
2026-04-20 03:31 22.22573 -159.56535 1447 ft 119 kts 92°
2026-04-20 03:31 22.22440 -159.55681 1608 ft 113 kts 103°
2026-04-20 03:32 22.22207 -159.54859 1667 ft 118 kts 109°
2026-04-20 03:32 22.21890 -159.54036 1734 ft 118 kts 114°
2026-04-20 03:32 22.21401 -159.53377 1963 ft 108 kts 142°
2026-04-20 03:32 22.20621 -159.53415 2050 ft 130 kts 203°
2026-04-20 03:33 22.19818 -159.53838 2087 ft 130 kts 191°
2026-04-20 03:33 22.18947 -159.54069 2109 ft 128 kts 181°
2026-04-20 03:33 22.18069 -159.54099 2144 ft 127 kts 168°
2026-04-20 03:33 22.17195 -159.53917 2180 ft 128 kts 153°
2026-04-20 03:34 22.16408 -159.53431 2191 ft 133 kts 142°
2026-04-20 03:34 22.15623 -159.52893 2182 ft 134 kts 144°
2026-04-20 03:34 22.14856 -159.52389 2346 ft 126 kts 144°
2026-04-20 03:34 22.14014 -159.52096 2435 ft 129 kts 164°
2026-04-20 03:35 22.13156 -159.51929 2592 ft 121 kts 155°
2026-04-20 03:35 22.12421 -159.51627 2869 ft 103 kts 140°
2026-04-20 03:35 22.11886 -159.51171 3218 ft 94 kts 123°
2026-04-20 03:35 22.11568 -159.50522 3398 ft 102 kts 108°
2026-04-20 03:36 22.11304 -159.49854 3737 ft 87 kts 118°
2026-04-20 03:36 22.11021 -159.49370 4017 ft 72 kts 135°
2026-04-20 03:36 22.10674 -159.48934 4021 ft 88 kts 134°
2026-04-20 03:36 22.10259 -159.48377 4064 ft 101 kts 126°
2026-04-20 03:37 22.09848 -159.47706 4022 ft 111 kts 119°
2026-04-20 03:37 22.09594 -159.46865 3780 ft 129 kts 101°
2026-04-20 03:37 22.09448 -159.45855 3470 ft 136 kts 99°
2026-04-20 03:37 22.09352 -159.44855 3358 ft 135 kts 96°
2026-04-20 03:38 22.09262 -159.43844 3229 ft 136 kts 99°
2026-04-20 03:38 22.08945 -159.42906 3122 ft 133 kts 121°
2026-04-20 03:38 22.08205 -159.42360 3078 ft 131 kts 162°
2026-04-20 03:38 22.07297 -159.42234 3018 ft 132 kts 172°
2026-04-20 03:39 22.06369 -159.42191 2910 ft 135 kts 170°
2026-04-20 03:39 22.05413 -159.42026 2663 ft 143 kts 163°
2026-04-20 03:39 22.04425 -159.41904 2551 ft 144 kts 183°
2026-04-20 03:39 22.03696 -159.42560 2605 ft 139 kts 244°
2026-04-20 03:40 22.03597 -159.43542 2727 ft 131 kts 278°
2026-04-20 03:40 22.04055 -159.44367 2776 ft 130 kts 317°
2026-04-20 03:40 22.04732 -159.44995 2855 ft 127 kts 320°
2026-04-20 03:40 22.05428 -159.45624 2835 ft 133 kts 318°
2026-04-20 03:41 22.06027 -159.46307 2979 ft 118 kts 303°
2026-04-20 03:41 22.06363 -159.47050 3015 ft 100 kts 281°
2026-04-20 03:41 22.06506 -159.47676 3069 ft 69 kts 276°
2026-04-20 03:41 22.06582 -159.48039 3055 ft 28 kts 276°
2026-04-20 03:42 22.06612 -159.48169 3056 ft 10 kts 275°
2026-04-20 03:42 22.06659 -159.48222 3131 ft 15 kts 264°
2026-04-20 03:42 22.06728 -159.48401 3178 ft 40 kts 254°
2026-04-20 03:42 22.06747 -159.48766 3269 ft 52 kts 220°
2026-04-20 03:43 22.06603 -159.48963 3342 ft 30 kts 115°
2026-04-20 03:43 22.06455 -159.48616 3076 ft 72 kts 104°
2026-04-20 03:43 22.06270 -159.48003 2860 ft 96 kts 109°
2026-04-20 03:43 22.05947 -159.47350 2674 ft 104 kts 124°
2026-04-20 03:44 22.05482 -159.46732 2497 ft 108 kts 129°
2026-04-20 03:44 22.04935 -159.46136 2324 ft 113 kts 132°
2026-04-20 03:44 22.04346 -159.45611 2290 ft 104 kts 138°
2026-04-20 03:44 22.03741 -159.45178 2150 ft 105 kts 143°
2026-04-20 03:45 22.03116 -159.44745 1995 ft 106 kts 141°
2026-04-20 03:45 22.02495 -159.44316 1873 ft 104 kts 141°
2026-04-20 03:45 22.01908 -159.43892 1718 ft 101 kts 143°
2026-04-20 03:45 22.01325 -159.43525 1605 ft 93 kts 141°
2026-04-20 03:46 22.00759 -159.43184 1611 ft 96 kts 142°
2026-04-20 03:46 22.00254 -159.42712 1585 ft 102 kts 122°
2026-04-20 03:46 21.99751 -159.42141 1573 ft 107 kts 134°
2026-04-20 03:46 21.99129 -159.41698 1555 ft 107 kts 148°
2026-04-20 03:47 21.98443 -159.41407 1544 ft 104 kts 154°
2026-04-20 03:47 21.97737 -159.41091 1472 ft 115 kts 151°
2026-04-20 03:47 21.97000 -159.40705 1443 ft 117 kts 144°
2026-04-20 03:47 21.96422 -159.40142 1404 ft 115 kts 122°
2026-04-20 03:48 21.95966 -159.39388 1216 ft 121 kts 114°
2026-04-20 03:48 21.95621 -159.38546 1050 ft 125 kts 107°
2026-04-20 03:48 21.95405 -159.37649 962 ft 122 kts 97°
2026-04-20 03:48 21.95489 -159.36791 964 ft 117 kts 62°
2026-04-20 03:49 21.96067 -159.36141 771 ft 121 kts 44°
2026-04-20 03:49 21.96605 -159.35625 807 ft 90 kts 54°
2026-04-20 03:49 21.96999 -159.35180 673 ft 74 kts 52°
2026-04-20 03:49 21.97360 -159.34805 513 ft 68 kts 53°
2026-04-20 03:50 21.97648 -159.34488 453 ft 52 kts 57°
2026-04-20 03:50 21.97905 -159.34231 406 ft 50 kts 46°
2026-04-20 03:50 21.98232 -159.34191 367 ft 48 kts
2026-04-20 03:50 21.98453 -159.34363 288 ft 32 kts 308°
2026-04-20 03:51 21.98425 -159.34510 200 ft 16 kts 200°
2026-04-20 03:51 21.98367 -159.34515 175 ft 7 kts 148°
2026-04-20 03:51 21.98352 -159.34499 153 ft 2 kts 142°
2026-04-20 03:51 21.98343 -159.34488 125 ft 1 kts 141°
2026-04-20 03:52 21.98338 -159.34485 121 ft 1 kts 138°
2026-04-20 03:52 21.98337 -159.34482 116 ft 0 kts 148°